createdAt,value
2019-05-22T00:01:55.987Z,16.70
2019-05-22T00:04:27.589Z,16.70
2019-05-22T00:07:13.520Z,16.70
2019-05-22T00:09:56.559Z,16.70
2019-05-22T00:12:46.269Z,16.70
2019-05-22T00:15:13.890Z,16.70
2019-05-22T00:17:57.659Z,16.80
2019-05-22T00:20:40.566Z,16.80
2019-05-22T00:23:25.592Z,16.80
2019-05-22T00:26:01.301Z,16.80
2019-05-22T00:28:39.065Z,16.70
2019-05-22T00:31:21.977Z,16.70
2019-05-22T00:34:05.123Z,16.70
2019-05-22T00:36:48.736Z,16.70
2019-05-22T00:39:33.565Z,16.60
2019-05-22T00:42:11.423Z,16.50
2019-05-22T00:44:54.773Z,16.60
2019-05-22T00:47:40.146Z,16.50
2019-05-22T00:50:35.477Z,16.50
2019-05-22T00:53:35.440Z,16.60
2019-05-22T00:56:23.965Z,16.50
2019-05-22T00:59:04.707Z,16.50
2019-05-22T01:01:52.470Z,16.50
2019-05-22T01:04:35.756Z,16.50
2019-05-22T01:07:24.085Z,16.50
2019-05-22T01:10:00.018Z,16.40
2019-05-22T01:12:54.724Z,16.40
2019-05-22T01:15:44.714Z,16.30
2019-05-22T01:18:21.716Z,16.30
2019-05-22T01:21:06.377Z,16.30
2019-05-22T01:23:43.663Z,16.40
2019-05-22T01:26:28.127Z,16.40
2019-05-22T01:29:04.660Z,16.30
2019-05-22T01:31:49.555Z,16.30
2019-05-22T01:34:40.815Z,16.40
2019-05-22T01:37:30.701Z,16.40
2019-05-22T01:40:30.247Z,16.40
2019-05-22T01:43:19.083Z,16.40
2019-05-22T01:46:01.866Z,16.30
2019-05-22T01:48:55.911Z,16.30
2019-05-22T01:51:32.473Z,16.30
2019-05-22T01:54:17.969Z,16.30
2019-05-22T01:57:02.405Z,16.40
2019-05-22T01:59:41.679Z,16.30
2019-05-22T02:02:28.699Z,16.30
2019-05-22T02:05:05.392Z,16.40
2019-05-22T02:07:48.224Z,16.40
2019-05-22T02:10:42.216Z,16.40
2019-05-22T02:13:26.727Z,16.30
2019-05-22T02:16:09.685Z,16.30
2019-05-22T02:18:49.505Z,16.30
2019-05-22T02:21:33.571Z,16.30
2019-05-22T02:24:10.037Z,16.40
2019-05-22T02:26:53.036Z,16.40
2019-05-22T02:29:36.246Z,16.50
2019-05-22T02:32:13.440Z,16.40
2019-05-22T02:34:50.240Z,16.40
2019-05-22T02:37:36.197Z,16.40
2019-05-22T02:40:39.055Z,16.40
2019-05-22T02:43:17.561Z,16.40
2019-05-22T02:46:07.541Z,16.30
2019-05-22T02:48:44.359Z,16.40
2019-05-22T02:51:27.948Z,16.30
2019-05-22T02:54:05.756Z,16.40
2019-05-22T02:56:48.266Z,16.20
2019-05-22T02:59:31.368Z,16.30
2019-05-22T03:02:10.994Z,16.20
2019-05-22T03:04:58.340Z,16.30
2019-05-22T03:07:42.706Z,16.20
2019-05-22T03:10:28.544Z,16.30
2019-05-22T03:13:05.384Z,16.40
2019-05-22T03:15:42.027Z,16.40
2019-05-22T03:21:18.159Z,16.50
2019-05-22T03:24:07.480Z,16.50
2019-05-22T03:26:56.005Z,16.50
2019-05-22T03:29:59.278Z,16.50
2019-05-22T03:32:50.423Z,16.50
2019-05-22T03:35:41.664Z,16.50
2019-05-22T03:38:26.669Z,16.60
2019-05-22T03:41:03.755Z,16.60
2019-05-22T03:43:42.043Z,16.70
2019-05-22T03:46:35.245Z,16.80
2019-05-22T03:49:29.315Z,16.80
2019-05-22T03:52:02.228Z,16.80
2019-05-22T03:54:51.562Z,16.90
2019-05-22T03:57:33.427Z,16.90
2019-05-22T04:00:12.530Z,17.00
2019-05-22T04:03:01.698Z,17.00
2019-05-22T04:05:38.724Z,17.00
2019-05-22T04:08:24.958Z,17.10
2019-05-22T04:11:16.911Z,17.10
2019-05-22T04:14:07.791Z,17.20
2019-05-22T04:16:59.020Z,17.20
2019-05-22T04:19:49.507Z,17.20
2019-05-22T04:22:27.051Z,17.40
2019-05-22T04:25:16.141Z,17.40
2019-05-22T04:27:45.730Z,17.50
2019-05-22T04:30:30.191Z,17.60
2019-05-22T04:33:06.827Z,17.60
2019-05-22T04:35:49.284Z,17.70
2019-05-22T04:38:25.648Z,17.80
2019-05-22T04:41:12.359Z,17.90
2019-05-22T04:43:55.394Z,18.00
2019-05-22T04:46:44.389Z,18.00
2019-05-22T04:49:20.264Z,18.00
2019-05-22T04:52:03.185Z,18.10
2019-05-22T04:54:45.927Z,18.10
2019-05-22T04:57:28.258Z,18.10
2019-05-22T05:00:04.362Z,18.00
2019-05-22T05:02:41.234Z,18.00
2019-05-22T05:05:25.244Z,18.10
2019-05-22T05:08:08.535Z,18.10
2019-05-22T05:10:45.786Z,18.20
2019-05-22T05:13:21.499Z,18.30
2019-05-22T05:16:04.474Z,18.40
2019-05-22T05:18:40.237Z,18.40
2019-05-22T05:21:22.820Z,18.40
2019-05-22T05:24:13.074Z,18.40
2019-05-22T05:26:57.275Z,18.40
2019-05-22T05:29:35.170Z,18.40
2019-05-22T05:32:18.647Z,18.40
2019-05-22T05:34:59.809Z,18.30
2019-05-22T05:37:43.961Z,18.30
2019-05-22T05:40:46.420Z,18.20
2019-05-22T05:43:30.208Z,18.30
2019-05-22T05:46:13.417Z,18.30
2019-05-22T05:48:56.077Z,18.20
2019-05-22T05:51:36.519Z,18.20
2019-05-22T05:54:21.204Z,18.20
2019-05-22T05:57:25.201Z,18.20
2019-05-22T06:00:10.463Z,18.30
2019-05-22T06:02:56.773Z,18.30
2019-05-22T06:05:45.085Z,18.20
2019-05-22T06:08:21.516Z,18.20
2019-05-22T06:11:14.786Z,18.20
2019-05-22T06:13:56.904Z,18.30
2019-05-22T06:16:46.380Z,18.40
2019-05-22T06:19:31.054Z,18.50
2019-05-22T06:22:09.264Z,18.60
2019-05-22T06:25:05.442Z,18.70
2019-05-22T06:27:56.949Z,18.70
2019-05-22T06:30:50.435Z,18.80
2019-05-22T06:33:38.903Z,18.90
2019-05-22T06:36:24.826Z,19.00
2019-05-22T06:39:10.112Z,19.10
2019-05-22T06:41:55.178Z,19.10
2019-05-22T06:44:44.669Z,19.10
2019-05-22T06:47:29.323Z,19.30
2019-05-22T06:50:11.985Z,19.70
2019-05-22T06:53:08.865Z,19.90
2019-05-22T06:55:32.027Z,20.10
2019-05-22T06:58:15.855Z,20.40
2019-05-22T07:00:59.073Z,20.80
2019-05-22T07:03:42.409Z,21.30
2019-05-22T07:06:18.720Z,21.60
2019-05-22T07:09:00.762Z,22.00
2019-05-22T07:11:37.931Z,21.90
2019-05-22T07:14:21.330Z,21.90
2019-05-22T07:16:59.470Z,21.80
2019-05-22T07:19:41.791Z,21.80
2019-05-22T07:22:18.325Z,22.00
2019-05-22T07:25:01.046Z,22.20
2019-05-22T07:27:45.286Z,22.20
2019-05-22T07:30:27.980Z,22.50
2019-05-22T07:33:05.475Z,21.90
2019-05-22T07:36:07.915Z,21.80
2019-05-22T07:38:33.307Z,22.00
2019-05-22T07:41:09.273Z,22.00
2019-05-22T07:43:58.714Z,22.60
2019-05-22T07:46:35.310Z,23.20
2019-05-22T07:49:19.475Z,23.70
2019-05-22T07:52:08.731Z,24.00
2019-05-22T07:54:52.747Z,23.90
2019-05-22T07:57:38.273Z,23.80
2019-05-22T08:00:21.250Z,23.30
2019-05-22T08:02:57.687Z,23.00
2019-05-22T08:05:34.494Z,23.40
2019-05-22T08:08:24.458Z,23.70
2019-05-22T08:11:00.802Z,23.90
2019-05-22T08:13:45.041Z,24.00
2019-05-22T08:16:35.557Z,23.70
2019-05-22T08:19:18.454Z,23.60
2019-05-22T08:22:07.244Z,24.00
2019-05-22T08:24:53.677Z,24.40
2019-05-22T08:27:36.537Z,24.50
2019-05-22T08:30:16.965Z,24.50
2019-05-22T08:33:01.158Z,24.20
2019-05-22T08:35:45.394Z,24.30
2019-05-22T08:38:28.054Z,24.20
2019-05-22T08:41:13.176Z,24.60
2019-05-22T08:44:16.366Z,24.70
2019-05-22T08:46:41.226Z,25.00
2019-05-22T08:49:24.834Z,24.60
2019-05-22T08:52:00.708Z,24.90
2019-05-22T08:54:45.873Z,25.00
2019-05-22T08:57:36.348Z,25.30
2019-05-22T09:00:22.671Z,25.40
2019-05-22T09:03:11.874Z,25.40
2019-05-22T09:08:54.582Z,25.40
2019-05-22T09:11:37.151Z,25.50
2019-05-22T09:14:13.086Z,25.70
2019-05-22T09:16:55.843Z,25.90
2019-05-22T09:19:38.551Z,26.00
2019-05-22T09:22:40.072Z,25.90
2019-05-22T09:25:10.202Z,25.90
2019-05-22T09:27:53.630Z,25.80
2019-05-22T09:30:29.324Z,25.60
2019-05-22T09:33:12.726Z,25.40
2019-05-22T09:36:02.214Z,25.40
2019-05-22T09:38:45.986Z,25.30
2019-05-22T09:41:23.723Z,25.40
2019-05-22T09:44:15.430Z,25.50
2019-05-22T09:46:58.610Z,25.40
2019-05-22T09:49:34.566Z,25.40
2019-05-22T09:52:25.065Z,25.90
2019-05-22T09:55:07.822Z,26.10
2019-05-22T09:57:44.666Z,26.10
2019-05-22T10:00:28.553Z,26.50
2019-05-22T10:03:05.757Z,26.70
2019-05-22T10:05:55.642Z,26.80
2019-05-22T10:08:31.900Z,27.10
2019-05-22T10:11:14.470Z,26.90
2019-05-22T10:14:03.583Z,26.50
2019-05-22T10:16:46.065Z,26.10
2019-05-22T10:19:22.772Z,25.80
2019-05-22T10:22:05.620Z,26.00
2019-05-22T10:24:42.262Z,26.20
2019-05-22T10:27:31.785Z,26.20
2019-05-22T10:30:19.063Z,26.20
2019-05-22T10:32:55.318Z,26.30
2019-05-22T10:35:39.851Z,26.40
2019-05-22T10:38:22.889Z,26.50
2019-05-22T10:41:13.431Z,26.60
2019-05-22T10:43:55.909Z,26.60
2019-05-22T10:46:32.366Z,26.70
2019-05-22T10:49:14.977Z,26.60
2019-05-22T10:51:51.616Z,26.70
2019-05-22T10:54:27.379Z,26.70
2019-05-22T10:57:10.066Z,26.60
2019-05-22T10:59:59.288Z,26.70
2019-05-22T11:02:35.065Z,26.60
2019-05-22T11:08:04.225Z,26.70
2019-05-22T11:10:40.615Z,26.70
2019-05-22T11:13:23.873Z,26.70
2019-05-22T11:15:52.694Z,26.90
2019-05-22T11:18:35.780Z,27.00
2019-05-22T11:21:26.388Z,26.90
2019-05-22T11:24:09.725Z,26.70
2019-05-22T11:26:53.634Z,26.70
2019-05-22T11:29:29.835Z,26.70
2019-05-22T11:32:07.122Z,26.70
2019-05-22T11:34:50.338Z,26.60
2019-05-22T11:37:33.165Z,26.70
2019-05-22T11:40:09.488Z,26.70
2019-05-22T11:42:46.529Z,26.50
2019-05-22T11:45:30.133Z,26.60
2019-05-22T11:50:43.501Z,26.50
2019-05-22T11:53:13.590Z,26.50
2019-05-22T11:55:57.439Z,26.50
2019-05-22T11:58:31.405Z,26.70
2019-05-22T12:01:13.427Z,26.70
2019-05-22T12:03:50.487Z,26.70
2019-05-22T12:06:26.816Z,26.60
2019-05-22T12:09:11.188Z,26.50
2019-05-22T12:12:00.107Z,26.50
2019-05-22T12:14:49.016Z,26.60
2019-05-22T12:22:32.078Z,26.60
2019-05-22T12:25:25.484Z,26.60
2019-05-22T12:28:15.063Z,26.60
2019-05-22T12:30:58.370Z,26.60
2019-05-22T12:33:47.495Z,26.60
2019-05-22T12:36:14.547Z,26.70
2019-05-22T12:39:03.736Z,26.70
2019-05-22T12:41:54.197Z,26.70
2019-05-22T12:44:21.235Z,26.70
2019-05-22T12:47:11.795Z,26.60
2019-05-22T12:50:02.858Z,26.70
2019-05-22T12:57:53.247Z,26.80
2019-05-22T13:00:42.985Z,26.70
2019-05-22T13:03:27.370Z,26.70
2019-05-22T13:06:03.937Z,26.60
2019-05-22T13:08:47.541Z,26.70
2019-05-22T13:11:36.661Z,26.70
2019-05-22T13:14:26.532Z,26.70
2019-05-22T13:17:02.433Z,26.80
2019-05-22T13:19:47.430Z,26.90
2019-05-22T13:22:16.427Z,26.90
2019-05-22T13:25:05.738Z,26.70
2019-05-22T13:27:43.623Z,26.70
2019-05-22T13:30:30.375Z,26.80
2019-05-22T13:33:22.506Z,26.90
2019-05-22T13:36:11.622Z,26.90
2019-05-22T13:41:27.512Z,26.90
2019-05-22T13:44:18.645Z,26.90
2019-05-22T13:49:28.828Z,26.90
2019-05-22T13:54:44.067Z,26.80
2019-05-22T13:57:34.393Z,26.80
2019-05-22T14:00:22.210Z,27.00
2019-05-22T14:03:12.961Z,27.20
2019-05-22T14:05:41.962Z,27.30
2019-05-22T14:10:53.311Z,27.30
2019-05-22T14:13:42.940Z,27.30
2019-05-22T14:16:47.655Z,27.20
2019-05-22T14:19:18.361Z,27.20
2019-05-22T14:22:00.454Z,27.30
2019-05-22T14:24:49.899Z,27.20
2019-05-22T14:27:41.528Z,27.20
2019-05-22T14:30:26.947Z,27.10
2019-05-22T14:33:16.374Z,27.20
2019-05-22T14:36:06.575Z,27.30
2019-05-22T14:38:48.969Z,27.20
2019-05-22T14:41:25.086Z,27.30
2019-05-22T14:44:17.284Z,27.20
2019-05-22T14:46:53.625Z,27.20
2019-05-22T14:49:36.788Z,27.20
2019-05-22T14:52:20.423Z,27.20
2019-05-22T14:55:10.041Z,27.20
2019-05-22T14:57:59.738Z,27.30
2019-05-22T15:00:26.776Z,27.30
2019-05-22T15:05:44.374Z,27.30
2019-05-22T15:08:34.197Z,27.40
2019-05-22T15:11:25.445Z,27.30
2019-05-22T15:14:08.412Z,27.20
2019-05-22T15:16:44.481Z,27.20
2019-05-22T15:19:22.398Z,27.30
2019-05-22T15:21:58.979Z,27.20
2019-05-22T15:24:42.186Z,27.00
2019-05-22T15:29:59.621Z,26.60
2019-05-22T15:32:47.985Z,26.60
2019-05-22T15:35:38.158Z,26.50
2019-05-22T15:38:16.412Z,26.50
2019-05-22T15:41:00.353Z,26.40
2019-05-22T15:43:53.180Z,26.30
2019-05-22T15:46:44.387Z,26.10
2019-05-22T15:49:19.260Z,25.90
2019-05-22T15:54:31.085Z,25.80
2019-05-22T15:57:18.922Z,25.70
2019-05-22T16:00:01.432Z,25.70
2019-05-22T16:02:46.689Z,25.50
2019-05-22T16:05:39.058Z,25.50
2019-05-22T16:08:30.027Z,25.50
2019-05-22T16:11:10.403Z,25.40
2019-05-22T16:14:00.404Z,25.30
2019-05-22T16:16:38.240Z,25.20
2019-05-22T16:19:24.230Z,25.20
2019-05-22T16:22:03.765Z,25.20
2019-05-22T16:24:46.707Z,25.20
2019-05-22T16:27:13.737Z,25.30
2019-05-22T16:30:03.727Z,25.30
2019-05-22T16:32:54.155Z,25.20
2019-05-22T16:35:21.967Z,25.30
2019-05-22T16:38:04.688Z,25.20
2019-05-22T16:40:50.741Z,25.10
2019-05-22T16:43:47.339Z,25.10
2019-05-22T16:46:06.173Z,24.90
2019-05-22T16:48:50.336Z,24.80
2019-05-22T16:51:18.622Z,24.80
2019-05-22T16:54:11.239Z,24.70
2019-05-22T16:57:00.377Z,24.70
2019-05-22T16:59:51.661Z,24.60
2019-05-22T17:02:34.387Z,24.40
2019-05-22T17:05:20.045Z,24.40
2019-05-22T17:08:10.250Z,24.50
2019-05-22T17:11:00.114Z,24.50
2019-05-22T17:13:44.096Z,24.40
2019-05-22T17:16:28.546Z,24.40
2019-05-22T17:19:26.350Z,24.30
2019-05-22T17:21:52.054Z,24.30
2019-05-22T17:24:35.319Z,24.20
2019-05-22T17:27:13.821Z,24.10
2019-05-22T17:29:59.890Z,24.00
2019-05-22T17:32:42.878Z,24.00
2019-05-22T17:35:22.301Z,23.90
2019-05-22T17:38:12.228Z,23.90
2019-05-22T17:40:55.323Z,23.80
2019-05-22T17:44:07.083Z,23.90
2019-05-22T17:46:57.219Z,23.70
2019-05-22T17:49:34.842Z,23.50
2019-05-22T17:52:18.680Z,23.50
2019-05-22T17:55:08.826Z,23.50
2019-05-22T17:57:39.192Z,23.40
2019-05-22T18:00:33.761Z,23.40
2019-05-22T18:03:25.371Z,23.40
2019-05-22T18:06:14.686Z,23.40
2019-05-22T18:09:04.257Z,23.20
2019-05-22T18:11:47.484Z,23.10
2019-05-22T18:14:23.487Z,23.10
2019-05-22T18:17:06.058Z,23.00
2019-05-22T18:19:48.687Z,22.90
2019-05-22T18:22:23.485Z,22.80
2019-05-22T18:25:05.721Z,22.80
2019-05-22T18:27:42.175Z,22.80
2019-05-22T18:30:24.751Z,22.80
2019-05-22T19:07:24.993Z,21.90
2019-05-22T19:10:01.836Z,21.80
2019-05-22T19:12:38.584Z,21.70
2019-05-22T19:15:09.253Z,21.70
2019-05-22T19:17:45.515Z,21.60
2019-05-22T19:20:16.484Z,21.60
2019-05-22T19:23:01.787Z,21.60
2019-05-22T19:25:31.420Z,21.50
2019-05-22T19:28:07.943Z,21.50
2019-05-22T19:30:37.919Z,21.50
2019-05-22T19:33:07.830Z,21.40
2019-05-22T19:35:44.404Z,21.40
2019-05-22T19:38:14.135Z,21.30
2019-05-22T19:40:51.025Z,21.20
2019-05-22T19:43:20.607Z,21.10
2019-05-22T19:45:57.093Z,21.10
2019-05-22T19:48:26.803Z,21.10
2019-05-22T19:51:03.373Z,21.00
2019-05-22T19:53:33.788Z,20.90
2019-05-22T19:56:10.462Z,20.80
2019-05-22T19:58:40.909Z,20.70
2019-05-22T20:01:24.979Z,20.50
2019-05-22T20:03:54.699Z,20.30
2019-05-22T20:06:38.910Z,20.20
2019-05-22T20:09:11.447Z,20.10
2019-05-22T20:11:41.890Z,19.90
2019-05-22T20:14:18.700Z,19.70
2019-05-22T20:16:48.466Z,19.30
2019-05-22T20:19:24.597Z,18.90
2019-05-22T20:21:55.042Z,18.60
2019-05-22T20:24:38.509Z,18.30
2019-05-22T20:27:09.778Z,18.40
2019-05-22T20:29:47.331Z,18.40
2019-05-22T20:32:17.104Z,18.30
2019-05-22T20:34:54.158Z,18.20
2019-05-22T20:37:23.779Z,18.30
2019-05-22T20:40:00.593Z,18.40
2019-05-22T20:42:31.996Z,18.40
2019-05-22T20:45:08.434Z,18.20
2019-05-22T20:47:42.033Z,18.00
2019-05-22T20:50:18.858Z,18.00
2019-05-22T20:52:49.760Z,17.90
2019-05-22T20:55:20.215Z,17.80
2019-05-22T20:57:58.321Z,17.80
2019-05-22T21:00:36.780Z,17.70
2019-05-22T21:03:08.326Z,17.60
2019-05-22T21:05:45.438Z,17.50
2019-05-22T21:08:24.474Z,17.40
2019-05-22T21:11:09.306Z,17.20
2019-05-22T21:13:39.846Z,17.20
2019-05-22T21:16:18.189Z,17.10
2019-05-22T21:18:50.066Z,17.00
2019-05-22T21:21:30.878Z,16.90
2019-05-22T21:24:10.330Z,16.90
2019-05-22T21:26:38.901Z,16.80
2019-05-22T21:29:09.103Z,16.70
2019-05-22T21:31:52.552Z,16.60
2019-05-22T21:34:22.333Z,16.50
2019-05-22T21:36:59.151Z,16.40
2019-05-22T21:39:29.688Z,16.20
2019-05-22T21:42:05.397Z,16.10
2019-05-22T21:44:35.185Z,15.90
2019-05-22T21:47:12.865Z,15.90
2019-05-22T21:49:44.323Z,15.80
2019-05-22T21:52:20.549Z,15.60
2019-05-22T21:54:57.192Z,15.50
2019-05-22T21:57:26.858Z,15.40
2019-05-22T22:00:03.779Z,15.30
2019-05-22T22:02:38.729Z,15.30
2019-05-22T22:05:15.637Z,15.10
2019-05-22T22:07:52.840Z,15.00
2019-05-22T22:10:35.342Z,15.00
2019-05-22T22:13:07.885Z,14.90
2019-05-22T22:15:47.962Z,14.90
2019-05-22T22:18:17.992Z,14.80
2019-05-22T22:20:54.676Z,14.80
2019-05-22T22:23:25.241Z,14.70
2019-05-22T22:26:01.669Z,14.70
2019-05-22T22:28:31.351Z,14.60
2019-05-22T22:31:19.651Z,14.60
2019-05-22T22:33:54.377Z,14.60
2019-05-22T22:36:30.979Z,14.50
2019-05-22T22:39:11.327Z,14.60
2019-05-22T22:41:48.788Z,14.60
2019-05-22T22:44:18.882Z,14.60
2019-05-22T22:47:02.813Z,14.60
2019-05-22T22:49:32.926Z,14.60
2019-05-22T22:52:10.435Z,14.60
2019-05-22T22:54:40.496Z,14.50
2019-05-22T22:57:18.120Z,14.40
2019-05-22T22:59:55.194Z,14.30
2019-05-22T23:02:36.500Z,14.40
2019-05-22T23:05:09.230Z,14.40
2019-05-22T23:07:46.137Z,14.40
2019-05-22T23:10:23.137Z,14.30
2019-05-22T23:13:02.193Z,14.30
2019-05-22T23:15:33.241Z,14.20
2019-05-22T23:18:10.034Z,14.30
2019-05-22T23:20:45.814Z,14.20
2019-05-22T23:23:13.909Z,14.30
2019-05-22T23:25:50.286Z,14.30
2019-05-22T23:28:34.795Z,14.30
2019-05-22T23:30:59.785Z,14.30
2019-05-22T23:33:44.066Z,14.30
2019-05-22T23:36:22.000Z,14.40
2019-05-22T23:38:59.813Z,14.40
2019-05-22T23:41:32.544Z,14.40
2019-05-22T23:44:09.444Z,14.30
2019-05-22T23:46:46.374Z,14.30
2019-05-22T23:49:22.954Z,14.30
2019-05-22T23:51:53.185Z,14.20
2019-05-22T23:54:24.247Z,14.10
2019-05-22T23:57:02.183Z,14.00
2019-05-22T23:59:33.865Z,13.90
